createdAt,value
2018-02-10T00:01:13.976Z,30.37
2018-02-10T00:03:43.125Z,30.83
2018-02-10T00:06:12.282Z,31.15
2018-02-10T00:08:41.492Z,30.08
2018-02-10T00:11:10.632Z,31.52
2018-02-10T00:13:40.498Z,31.87
2018-02-10T00:16:09.827Z,32.90
2018-02-10T00:18:39.229Z,32.90
2018-02-10T00:21:08.811Z,32.80
2018-02-10T00:23:37.908Z,34.17
2018-02-10T00:26:07.529Z,33.13
2018-02-10T00:28:37.017Z,32.35
2018-02-10T00:31:06.244Z,31.83
2018-02-10T00:33:35.649Z,32.38
2018-02-10T00:36:05.330Z,33.22
2018-02-10T00:38:35.052Z,32.88
2018-02-10T00:41:04.651Z,32.45
2018-02-10T00:43:34.347Z,32.13
2018-02-10T00:46:03.852Z,33.38
2018-02-10T00:48:33.128Z,31.50
2018-02-10T00:51:02.485Z,31.77
2018-02-10T00:53:31.908Z,33.00
2018-02-10T00:56:00.978Z,32.10
2018-02-10T00:58:30.114Z,33.17
2018-02-10T01:00:59.653Z,30.65
2018-02-10T01:03:28.664Z,32.67
2018-02-10T01:05:58.226Z,32.97
2018-02-10T01:08:27.526Z,31.48
2018-02-10T01:10:57.268Z,29.50
2018-02-10T01:13:26.662Z,29.23
2018-02-10T01:15:55.806Z,30.42
2018-02-10T01:18:25.217Z,30.45
2018-02-10T01:20:54.399Z,30.80
2018-02-10T01:23:23.734Z,31.60
2018-02-10T01:25:53.132Z,31.05
2018-02-10T01:28:22.590Z,31.42
2018-02-10T01:30:52.091Z,31.48
2018-02-10T01:33:21.913Z,31.95
2018-02-10T01:35:51.517Z,30.67
2018-02-10T01:38:20.813Z,31.58
2018-02-10T01:40:50.635Z,31.48
2018-02-10T01:43:20.344Z,28.27
2018-02-10T01:45:49.545Z,31.20
2018-02-10T01:48:18.984Z,33.25
2018-02-10T01:50:48.230Z,33.05
2018-02-10T01:53:17.690Z,32.08
2018-02-10T01:55:46.954Z,32.53
2018-02-10T01:58:16.460Z,31.90
2018-02-10T02:00:46.258Z,34.10
2018-02-10T02:03:15.667Z,34.45
2018-02-10T02:05:45.046Z,34.45
2018-02-10T02:08:14.470Z,35.60
2018-02-10T02:10:43.966Z,32.55
2018-02-10T02:13:13.460Z,33.92
2018-02-10T02:15:42.782Z,32.97
2018-02-10T02:18:12.128Z,32.25
2018-02-10T02:20:41.444Z,30.88
2018-02-10T02:23:11.147Z,32.47
2018-02-10T02:25:40.904Z,32.63
2018-02-10T02:28:10.544Z,33.85
2018-02-10T02:30:40.232Z,36.13
2018-02-10T02:33:09.598Z,35.15
2018-02-10T02:35:39.170Z,33.08
2018-02-10T02:38:08.952Z,33.67
2018-02-10T02:40:38.725Z,31.00
2018-02-10T02:43:08.590Z,34.20
2018-02-10T02:45:38.287Z,32.25
2018-02-10T02:48:07.709Z,31.00
2018-02-10T02:50:37.108Z,32.88
2018-02-10T02:53:06.381Z,30.27
2018-02-10T02:55:36.070Z,27.50
2018-02-10T02:58:05.390Z,28.48
2018-02-10T03:00:34.797Z,28.67
2018-02-10T03:03:04.337Z,28.77
2018-02-10T03:05:33.705Z,27.08
2018-02-10T03:08:03.116Z,27.60
2018-02-10T03:10:32.656Z,24.52
2018-02-10T03:13:01.735Z,28.58
2018-02-10T03:15:31.162Z,27.42
2018-02-10T03:18:00.449Z,29.58
2018-02-10T03:20:29.781Z,28.98
2018-02-10T03:22:59.419Z,28.33
2018-02-10T03:25:28.946Z,24.85
2018-02-10T03:27:58.368Z,28.52
2018-02-10T03:30:27.810Z,26.95
2018-02-10T03:32:57.552Z,27.15
2018-02-10T03:35:27.985Z,27.80
2018-02-10T03:37:57.302Z,26.75
2018-02-10T03:40:26.902Z,27.20
2018-02-10T03:42:56.203Z,27.15
2018-02-10T03:45:25.833Z,27.75
2018-02-10T03:47:55.312Z,24.63
2018-02-10T03:50:24.629Z,25.95
2018-02-10T03:52:53.625Z,24.40
2018-02-10T03:55:23.704Z,26.27
2018-02-10T03:57:53.089Z,24.10
2018-02-10T04:00:22.586Z,26.25
2018-02-10T04:02:52.140Z,25.62
2018-02-10T04:05:21.733Z,24.08
2018-02-10T04:07:50.994Z,23.87
2018-02-10T04:10:20.451Z,24.67
2018-02-10T04:12:49.565Z,23.73
2018-02-10T04:15:19.089Z,24.87
2018-02-10T04:17:48.833Z,25.42
2018-02-10T04:20:18.262Z,25.67
2018-02-10T04:22:47.824Z,25.52
2018-02-10T04:25:17.380Z,25.08
2018-02-10T04:27:47.008Z,25.25
2018-02-10T04:30:16.478Z,27.00
2018-02-10T04:32:46.058Z,28.12
2018-02-10T04:35:15.668Z,26.75
2018-02-10T04:37:45.143Z,27.65
2018-02-10T04:40:14.596Z,27.65
2018-02-10T04:42:44.003Z,28.02
2018-02-10T04:45:13.515Z,27.17
2018-02-10T04:47:42.964Z,28.67
2018-02-10T04:50:12.384Z,28.60
2018-02-10T04:52:41.965Z,27.17
2018-02-10T04:55:11.374Z,29.63
2018-02-10T04:57:40.754Z,26.45
2018-02-10T05:00:10.309Z,24.17
2018-02-10T05:02:40.033Z,25.52
2018-02-10T05:05:10.185Z,23.95
2018-02-10T05:07:39.509Z,23.48
2018-02-10T05:10:09.300Z,24.05
2018-02-10T05:12:38.679Z,23.83
2018-02-10T05:15:07.858Z,24.17
2018-02-10T05:17:37.137Z,24.98
2018-02-10T05:20:06.540Z,27.35
2018-02-10T05:22:36.194Z,27.42
2018-02-10T05:25:05.744Z,27.05
2018-02-10T05:27:35.120Z,26.08
2018-02-10T05:30:04.529Z,27.05
2018-02-10T05:32:34.995Z,24.75
2018-02-10T05:35:04.401Z,26.45
2018-02-10T05:37:33.573Z,25.35
2018-02-10T05:40:02.610Z,29.92
2018-02-10T05:42:31.994Z,26.30
2018-02-10T05:45:01.219Z,29.45
2018-02-10T05:47:30.640Z,23.42
2018-02-10T05:50:00.131Z,26.40
2018-02-10T05:52:29.420Z,25.30
2018-02-10T05:54:58.620Z,27.70
2018-02-10T05:57:28.014Z,26.25
2018-02-10T05:59:57.098Z,25.77
2018-02-10T06:02:26.230Z,25.67
2018-02-10T06:04:55.436Z,27.05
2018-02-10T06:07:24.737Z,27.67
2018-02-10T06:09:53.829Z,28.90
2018-02-10T06:12:23.066Z,28.48
2018-02-10T06:14:52.229Z,27.55
2018-02-10T06:17:21.735Z,30.20
2018-02-10T06:19:50.902Z,25.98
2018-02-10T06:22:20.068Z,25.45
2018-02-10T06:24:49.539Z,26.70
2018-02-10T06:27:18.832Z,27.70
2018-02-10T06:29:47.721Z,27.95
2018-02-10T06:32:16.758Z,28.40
2018-02-10T06:34:45.767Z,28.17
2018-02-10T06:37:15.219Z,25.52
2018-02-10T06:39:44.617Z,26.25
2018-02-10T06:42:13.633Z,24.77
2018-02-10T06:44:42.819Z,23.23
2018-02-10T06:47:11.730Z,24.33
2018-02-10T06:49:41.146Z,23.33
2018-02-10T06:52:10.623Z,21.65
2018-02-10T06:54:39.984Z,20.92
2018-02-10T06:57:09.459Z,19.95
2018-02-10T06:59:39.029Z,19.45
2018-02-10T07:02:08.799Z,19.55
2018-02-10T07:04:38.356Z,21.98
2018-02-10T07:07:08.094Z,41.85
2018-02-10T07:09:37.328Z,22.45
2018-02-10T07:12:07.066Z,20.92
2018-02-10T07:14:36.761Z,34.05
2018-02-10T07:17:06.230Z,21.17
2018-02-10T07:19:35.479Z,24.25
2018-02-10T07:22:04.884Z,21.48
2018-02-10T07:24:34.597Z,22.48
2018-02-10T07:27:03.918Z,23.73
2018-02-10T07:29:33.714Z,21.83
2018-02-10T07:32:03.129Z,19.67
2018-02-10T07:34:32.466Z,21.70
2018-02-10T07:37:02.048Z,20.55
2018-02-10T07:39:31.238Z,21.43
2018-02-10T07:42:01.031Z,21.10
2018-02-10T07:44:30.784Z,19.85
2018-02-10T07:47:00.266Z,21.70
2018-02-10T07:49:29.847Z,21.40
2018-02-10T07:51:58.917Z,21.90
2018-02-10T07:54:27.974Z,22.77
2018-02-10T07:56:57.718Z,23.20
2018-02-10T07:59:27.009Z,22.48
2018-02-10T08:01:56.289Z,22.20
2018-02-10T08:04:25.725Z,22.85
2018-02-10T08:06:55.058Z,21.30
2018-02-10T08:09:24.580Z,24.15
2018-02-10T08:11:53.901Z,22.75
2018-02-10T08:14:23.675Z,24.25
2018-02-10T08:16:52.892Z,23.40
2018-02-10T08:19:22.381Z,21.37
2018-02-10T08:21:52.601Z,23.02
2018-02-10T08:24:22.069Z,22.33
2018-02-10T08:26:51.566Z,21.08
2018-02-10T08:29:21.093Z,20.85
2018-02-10T08:31:50.672Z,20.30
2018-02-10T08:34:20.163Z,21.42
2018-02-10T08:36:49.569Z,19.90
2018-02-10T08:39:19.092Z,19.95
2018-02-10T08:41:48.611Z,19.92
2018-02-10T08:44:18.009Z,18.90
2018-02-10T08:46:47.894Z,20.30
2018-02-10T08:49:17.346Z,22.05
2018-02-10T08:51:46.893Z,20.20
2018-02-10T08:54:16.036Z,21.52
2018-02-10T08:56:45.278Z,18.73
2018-02-10T08:59:14.545Z,19.02
2018-02-10T09:01:43.854Z,22.17
2018-02-10T09:04:13.629Z,20.60
2018-02-10T09:06:42.868Z,21.05
2018-02-10T09:09:11.965Z,19.12
2018-02-10T09:11:41.101Z,20.95
2018-02-10T09:14:09.953Z,19.05
2018-02-10T09:16:39.267Z,19.92
2018-02-10T09:19:08.180Z,20.62
2018-02-10T09:21:37.564Z,20.35
2018-02-10T09:24:06.955Z,21.48
2018-02-10T09:26:36.122Z,19.80
2018-02-10T09:29:05.250Z,20.90
2018-02-10T09:31:34.505Z,24.02
2018-02-10T09:34:03.598Z,23.55
2018-02-10T09:36:32.850Z,22.20
2018-02-10T09:39:02.392Z,20.05
2018-02-10T09:41:31.489Z,21.52
2018-02-10T09:44:00.617Z,20.25
2018-02-10T09:46:29.862Z,21.67
2018-02-10T09:48:59.145Z,22.45
2018-02-10T09:51:28.441Z,19.70
2018-02-10T09:53:57.740Z,19.10
2018-02-10T09:56:26.797Z,20.60
2018-02-10T09:58:56.110Z,18.87
2018-02-10T10:01:25.282Z,19.52
2018-02-10T10:03:54.681Z,25.60
2018-02-10T10:06:23.985Z,18.98
2018-02-10T10:08:53.451Z,18.08
2018-02-10T10:11:22.689Z,18.58
2018-02-10T10:13:51.955Z,18.65
2018-02-10T10:16:21.107Z,17.73
2018-02-10T10:18:50.296Z,19.50
2018-02-10T10:21:19.585Z,18.65
2018-02-10T10:23:48.664Z,18.80
2018-02-10T10:26:17.686Z,18.33
2018-02-10T10:28:47.078Z,19.27
2018-02-10T10:31:16.561Z,19.25
2018-02-10T10:33:45.744Z,20.90
2018-02-10T10:36:15.402Z,18.50
2018-02-10T10:38:44.657Z,18.45
2018-02-10T10:41:13.624Z,19.98
2018-02-10T10:43:42.620Z,16.95
2018-02-10T10:46:11.704Z,17.93
2018-02-10T10:48:41.533Z,16.97
2018-02-10T10:51:11.403Z,18.40
2018-02-10T10:53:40.749Z,18.48
2018-02-10T10:56:09.653Z,18.00
2018-02-10T10:58:38.821Z,18.00
2018-02-10T11:01:07.947Z,19.52
2018-02-10T11:03:37.461Z,18.85
2018-02-10T11:06:06.967Z,21.17
2018-02-10T11:08:36.470Z,18.97
2018-02-10T11:11:06.083Z,17.73
2018-02-10T11:13:35.288Z,17.67
2018-02-10T11:16:04.696Z,19.98
2018-02-10T11:18:34.115Z,18.23
2018-02-10T11:21:03.174Z,20.37
2018-02-10T11:23:32.382Z,18.83
2018-02-10T11:26:01.590Z,20.00
2018-02-10T11:28:31.101Z,19.00
2018-02-10T11:31:00.247Z,19.98
2018-02-10T11:33:29.833Z,17.87
2018-02-10T11:35:59.218Z,17.58
2018-02-10T11:38:28.626Z,18.50
2018-02-10T11:40:58.007Z,21.65
2018-02-10T11:43:27.576Z,18.95
2018-02-10T11:45:57.010Z,20.48
2018-02-10T11:48:26.336Z,19.15
2018-02-10T11:50:55.610Z,18.67
2018-02-10T11:53:24.701Z,22.10
2018-02-10T11:55:54.087Z,19.42
2018-02-10T11:58:23.329Z,20.75
2018-02-10T12:00:52.730Z,20.33
2018-02-10T12:03:21.977Z,19.37
2018-02-10T12:05:51.302Z,20.37
2018-02-10T12:08:20.916Z,21.02
2018-02-10T12:10:50.228Z,21.35
2018-02-10T12:13:19.820Z,20.80
2018-02-10T12:15:48.948Z,21.75
2018-02-10T12:18:18.050Z,21.40
2018-02-10T12:20:47.326Z,22.73
2018-02-10T12:23:16.945Z,20.80
2018-02-10T12:25:46.430Z,23.27
2018-02-10T12:28:15.892Z,23.50
2018-02-10T12:30:45.097Z,22.33
2018-02-10T12:33:14.329Z,23.05
2018-02-10T12:35:43.779Z,21.55
2018-02-10T12:38:13.417Z,23.10
2018-02-10T12:40:43.121Z,23.73
2018-02-10T12:43:13.169Z,24.15
2018-02-10T12:45:42.781Z,23.65
2018-02-10T12:48:17.709Z,23.83
2018-02-10T12:50:47.128Z,25.27
2018-02-10T12:53:16.407Z,24.20
2018-02-10T12:55:45.897Z,26.15
2018-02-10T12:58:15.297Z,24.83
2018-02-10T13:00:44.434Z,23.67
2018-02-10T13:03:14.727Z,23.33
2018-02-10T13:05:43.956Z,24.15
2018-02-10T13:08:13.234Z,24.77
2018-02-10T13:10:43.066Z,24.67
2018-02-10T13:13:12.457Z,23.20
2018-02-10T13:15:42.016Z,26.27
2018-02-10T13:18:11.316Z,26.00
2018-02-10T13:20:40.630Z,27.50
2018-02-10T13:23:10.147Z,26.48
2018-02-10T13:25:39.694Z,27.55
2018-02-10T13:28:09.024Z,26.35
2018-02-10T13:30:38.496Z,28.15
2018-02-10T13:33:08.440Z,26.10
2018-02-10T13:35:37.828Z,25.73
2018-02-10T13:38:07.266Z,26.65
2018-02-10T13:40:36.793Z,27.30
2018-02-10T13:43:06.248Z,25.85
2018-02-10T13:45:35.718Z,26.27
2018-02-10T13:48:05.076Z,25.60
2018-02-10T13:50:34.697Z,27.65
2018-02-10T13:53:03.994Z,27.25
2018-02-10T13:55:33.165Z,27.67
2018-02-10T13:58:02.305Z,27.23
2018-02-10T14:00:31.856Z,29.00
2018-02-10T14:03:02.017Z,27.77
2018-02-10T14:05:31.406Z,30.08
2018-02-10T14:08:00.782Z,31.37
2018-02-10T14:10:30.360Z,29.87
2018-02-10T14:13:00.038Z,30.15
2018-02-10T14:15:29.409Z,30.17
2018-02-10T14:17:58.825Z,29.10
2018-02-10T14:20:28.096Z,30.58
2018-02-10T14:22:57.633Z,29.73
2018-02-10T14:25:27.821Z,27.27
2018-02-10T14:27:57.528Z,29.05
2018-02-10T14:30:27.949Z,30.67
2018-02-10T14:32:57.468Z,33.17
2018-02-10T14:35:28.638Z,29.75
2018-02-10T14:37:58.034Z,32.03
2018-02-10T14:40:27.614Z,29.63
2018-02-10T14:42:57.104Z,29.65
2018-02-10T14:45:26.943Z,30.60
2018-02-10T14:47:56.423Z,29.30
2018-02-10T14:50:25.567Z,25.23
2018-02-10T14:52:55.052Z,25.90
2018-02-10T14:55:24.744Z,27.60
2018-02-10T14:57:53.873Z,30.42
2018-02-10T15:00:23.454Z,27.85
2018-02-10T15:02:52.967Z,31.10
2018-02-10T15:05:22.873Z,27.52
2018-02-10T15:07:52.112Z,28.20
2018-02-10T15:10:21.568Z,27.45
2018-02-10T15:12:50.868Z,25.85
2018-02-10T15:15:20.249Z,30.88
2018-02-10T15:17:50.186Z,25.83
2018-02-10T15:20:20.006Z,24.73
2018-02-10T15:22:49.632Z,23.98
2018-02-10T15:25:19.122Z,24.80
2018-02-10T15:27:48.523Z,34.22
2018-02-10T15:30:29.188Z,27.08
2018-02-10T15:33:09.206Z,24.73
2018-02-10T15:35:38.739Z,19.02
2018-02-10T15:38:08.050Z,18.90
2018-02-10T15:40:37.873Z,19.12
2018-02-10T15:43:07.482Z,18.10
2018-02-10T15:45:36.837Z,25.35
2018-02-10T15:48:06.248Z,24.23
2018-02-10T15:50:35.575Z,25.00
2018-02-10T15:53:04.855Z,22.75
2018-02-10T15:55:34.338Z,23.02
2018-02-10T15:58:04.111Z,23.27
2018-02-10T16:00:33.454Z,26.40
2018-02-10T16:03:02.844Z,24.50
2018-02-10T16:05:32.281Z,25.25
2018-02-10T16:08:01.895Z,25.08
2018-02-10T16:10:31.140Z,24.10
2018-02-10T16:13:00.566Z,25.55
2018-02-10T16:15:30.068Z,24.60
2018-02-10T16:17:59.322Z,23.33
2018-02-10T16:20:28.721Z,24.02
2018-02-10T16:22:58.335Z,22.05
2018-02-10T16:25:28.174Z,21.90
2018-02-10T16:27:57.738Z,21.55
2018-02-10T16:30:27.073Z,23.05
2018-02-10T16:32:56.262Z,21.67
2018-02-10T16:35:25.759Z,21.95
2018-02-10T16:37:55.468Z,20.35
2018-02-10T16:40:25.014Z,19.25
2018-02-10T16:42:54.182Z,19.42
2018-02-10T16:45:23.369Z,21.65
2018-02-10T16:47:52.901Z,20.33
2018-02-10T16:50:22.619Z,21.62
2018-02-10T16:52:51.922Z,20.25
2018-02-10T16:55:21.424Z,24.10
2018-02-10T16:57:50.762Z,19.20
2018-02-10T17:00:20.177Z,20.62
2018-02-10T17:02:49.379Z,22.00
2018-02-10T17:05:18.664Z,21.33
2018-02-10T17:07:48.061Z,20.90
2018-02-10T17:10:17.542Z,20.15
2018-02-10T17:12:46.974Z,20.33
2018-02-10T17:15:16.069Z,18.35
2018-02-10T17:17:45.296Z,21.60
2018-02-10T17:20:15.120Z,20.88
2018-02-10T17:22:44.445Z,16.12
2018-02-10T17:25:13.910Z,17.73
2018-02-10T17:27:43.309Z,17.75
2018-02-10T17:30:13.028Z,20.80
2018-02-10T17:32:42.552Z,19.58
2018-02-10T17:35:12.154Z,17.30
2018-02-10T17:37:41.677Z,17.60
2018-02-10T17:40:11.007Z,19.10
2018-02-10T17:42:40.956Z,18.17
2018-02-10T17:45:10.676Z,20.90
2018-02-10T17:47:40.393Z,19.20
2018-02-10T17:50:10.242Z,18.10
2018-02-10T17:52:39.843Z,20.08
2018-02-10T17:55:09.624Z,17.65
2018-02-10T17:57:39.184Z,20.45
2018-02-10T18:00:08.930Z,19.17
2018-02-10T18:02:38.338Z,19.73
2018-02-10T18:05:07.878Z,19.65
2018-02-10T18:07:37.408Z,18.65
2018-02-10T18:10:06.785Z,19.67
2018-02-10T18:12:36.585Z,17.90
2018-02-10T18:15:06.022Z,19.30
2018-02-10T18:17:35.665Z,16.23
2018-02-10T18:20:04.954Z,17.08
2018-02-10T18:22:34.396Z,17.87
2018-02-10T18:25:04.225Z,14.95
2018-02-10T18:27:34.010Z,16.25
2018-02-10T18:30:03.861Z,15.63
2018-02-10T18:32:33.296Z,13.40
2018-02-10T18:35:02.978Z,14.35
2018-02-10T18:37:32.334Z,14.90
2018-02-10T18:40:01.812Z,14.57
2018-02-10T18:42:31.345Z,13.55
2018-02-10T18:45:00.846Z,14.77
2018-02-10T18:47:30.261Z,14.02
2018-02-10T18:49:59.553Z,12.93
2018-02-10T18:52:29.164Z,12.05
2018-02-10T18:54:58.534Z,12.15
2018-02-10T18:57:27.984Z,12.32
2018-02-10T18:59:57.801Z,13.00
2018-02-10T19:02:27.210Z,12.15
2018-02-10T19:04:56.618Z,9.68
2018-02-10T19:07:26.008Z,12.23
2018-02-10T19:09:55.498Z,12.75
2018-02-10T19:12:25.138Z,10.43
2018-02-10T19:14:54.812Z,13.02
2018-02-10T19:17:24.242Z,10.70
2018-02-10T19:19:53.472Z,11.57
2018-02-10T19:22:22.790Z,11.12
2018-02-10T19:24:52.064Z,12.60
2018-02-10T19:27:21.536Z,12.70
2018-02-10T19:29:50.916Z,15.77
2018-02-10T19:32:20.505Z,14.63
2018-02-10T19:34:49.932Z,12.82
2018-02-10T19:37:19.241Z,11.95
2018-02-10T19:39:48.555Z,12.02
2018-02-10T19:42:17.967Z,12.32
2018-02-10T19:44:47.680Z,13.00
2018-02-10T19:47:16.746Z,13.82
2018-02-10T19:49:46.156Z,12.00
2018-02-10T19:52:15.726Z,12.50
2018-02-10T19:54:44.897Z,12.35
2018-02-10T19:57:14.489Z,12.85
2018-02-10T19:59:44.369Z,13.90
2018-02-10T20:02:13.880Z,12.25
2018-02-10T20:04:43.695Z,12.90
2018-02-10T20:07:13.721Z,13.48
2018-02-10T20:09:43.281Z,13.40
2018-02-10T20:12:12.740Z,16.15
2018-02-10T20:14:42.234Z,15.93
2018-02-10T20:17:11.699Z,14.63
2018-02-10T20:19:41.056Z,15.70
2018-02-10T20:22:10.933Z,15.98
2018-02-10T20:24:40.246Z,16.35
2018-02-10T20:27:09.282Z,16.58
2018-02-10T20:29:38.470Z,17.05
2018-02-10T20:32:07.506Z,17.52
2018-02-10T20:34:36.927Z,16.73
2018-02-10T20:37:06.205Z,16.58
2018-02-10T20:39:35.540Z,16.37
2018-02-10T20:42:04.739Z,16.48
2018-02-10T20:44:34.126Z,15.88
2018-02-10T20:47:03.405Z,15.23
2018-02-10T20:49:32.874Z,14.80
2018-02-10T20:52:02.278Z,15.48
2018-02-10T20:54:31.482Z,14.63
2018-02-10T20:57:00.891Z,18.58
2018-02-10T20:59:30.461Z,15.18
2018-02-10T21:01:59.562Z,15.50
2018-02-10T21:04:28.869Z,14.45
2018-02-10T21:06:58.046Z,15.43
2018-02-10T21:09:27.318Z,14.95
2018-02-10T21:11:57.181Z,13.18
2018-02-10T21:14:26.870Z,14.07
2018-02-10T21:16:56.097Z,11.90
2018-02-10T21:19:25.355Z,12.45
2018-02-10T21:21:54.685Z,12.32
2018-02-10T21:24:23.873Z,13.18
2018-02-10T21:26:53.165Z,12.15
2018-02-10T21:29:22.549Z,9.35
2018-02-10T21:31:51.995Z,9.75
2018-02-10T21:34:21.899Z,10.23
2018-02-10T21:36:51.018Z,9.68
2018-02-10T21:39:20.358Z,9.45
2018-02-10T21:41:49.465Z,9.43
2018-02-10T21:44:18.792Z,9.57
2018-02-10T21:46:48.164Z,9.88
2018-02-10T21:49:17.365Z,9.48
2018-02-10T21:51:46.786Z,9.35
2018-02-10T21:54:16.221Z,8.93
2018-02-10T21:56:45.830Z,9.10
2018-02-10T21:59:15.301Z,10.32
2018-02-10T22:01:44.285Z,12.93
2018-02-10T22:04:14.103Z,11.10
2018-02-10T22:06:43.437Z,9.15
2018-02-10T22:09:13.074Z,8.93
2018-02-10T22:11:42.553Z,9.45
2018-02-10T22:14:11.756Z,9.20
2018-02-10T22:16:40.946Z,8.00
2018-02-10T22:19:10.311Z,9.38
2018-02-10T22:21:39.546Z,10.77
2018-02-10T22:24:08.615Z,10.73
2018-02-10T22:26:37.973Z,9.02
2018-02-10T22:29:07.115Z,9.48
2018-02-10T22:31:36.387Z,8.98
2018-02-10T22:34:05.506Z,9.45
2018-02-10T22:36:34.856Z,8.38
2018-02-10T22:39:04.200Z,9.35
2018-02-10T22:41:33.301Z,9.38
2018-02-10T22:44:02.728Z,8.43
2018-02-10T22:46:31.898Z,9.90
2018-02-10T22:49:01.041Z,9.20
2018-02-10T22:51:30.297Z,9.02
2018-02-10T22:53:59.785Z,8.73
2018-02-10T22:56:30.021Z,9.20
2018-02-10T22:58:59.121Z,9.65
2018-02-10T23:01:28.134Z,9.55
2018-02-10T23:03:57.449Z,8.13
2018-02-10T23:06:27.127Z,8.98
2018-02-10T23:08:56.444Z,8.75
2018-02-10T23:11:25.664Z,8.68
2018-02-10T23:13:54.477Z,8.80
2018-02-10T23:16:23.692Z,8.57
2018-02-10T23:18:52.588Z,8.73
2018-02-10T23:21:21.530Z,9.80
2018-02-10T23:23:50.712Z,9.40
2018-02-10T23:26:20.304Z,10.25
2018-02-10T23:28:49.522Z,10.80
2018-02-10T23:31:18.670Z,8.32
2018-02-10T23:33:48.005Z,10.70
2018-02-10T23:36:17.092Z,10.43
2018-02-10T23:38:46.201Z,10.45
2018-02-10T23:41:15.333Z,9.60
2018-02-10T23:43:44.388Z,9.93
2018-02-10T23:46:13.635Z,10.38
2018-02-10T23:48:42.941Z,10.02
2018-02-10T23:51:12.443Z,11.20
2018-02-10T23:53:41.482Z,9.77
2018-02-10T23:56:10.599Z,9.90
2018-02-10T23:58:39.482Z,10.10
